createdAt,value
2022-08-09T00:01:10.658Z,96839.31
2022-08-09T00:04:05.874Z,96836.44
2022-08-09T00:06:28.916Z,96831.25
2022-08-09T00:08:58.828Z,96834.94
2022-08-09T00:11:58.500Z,96841.16
2022-08-09T00:14:21.833Z,96836.00
2022-08-09T00:16:54.888Z,96830.63
2022-08-09T00:19:21.635Z,96828.94
2022-08-09T00:21:55.809Z,96827.28
2022-08-09T00:24:24.407Z,96829.94
2022-08-09T00:26:51.343Z,96831.16
2022-08-09T00:29:39.174Z,96829.31
2022-08-09T00:32:06.079Z,96822.66
2022-08-09T00:34:33.642Z,96826.34
2022-08-09T00:37:00.674Z,96829.00
2022-08-09T00:40:14.048Z,96827.34
2022-08-09T00:44:11.266Z,96821.66
2022-08-09T00:45:03.587Z,96820.00
2022-08-09T00:47:44.107Z,96817.03
2022-08-09T00:50:14.852Z,96817.34
2022-08-09T00:52:41.883Z,96813.72
2022-08-09T00:55:10.375Z,96813.59
2022-08-09T00:57:59.404Z,96808.41
2022-08-09T01:00:26.817Z,96800.75
2022-08-09T01:03:21.739Z,96800.94
2022-08-09T01:06:18.027Z,96807.28
2022-08-09T01:09:06.174Z,96824.19
2022-08-09T01:11:56.153Z,96818.19
2022-08-09T01:14:26.888Z,96822.22
2022-08-09T01:17:02.465Z,96823.09
2022-08-09T01:20:01.937Z,96820.94
2022-08-09T01:22:51.250Z,96831.66
2022-08-09T01:25:53.198Z,96826.66
2022-08-09T01:28:22.671Z,96828.88
2022-08-09T01:30:55.885Z,96827.19
2022-08-09T01:33:29.840Z,96836.59
2022-08-09T01:36:20.367Z,96834.22
2022-08-09T01:38:50.687Z,96829.72
2022-08-09T01:41:26.022Z,96823.69
2022-08-09T01:43:56.198Z,96832.09
2022-08-09T01:46:31.640Z,96829.59
2022-08-09T01:49:10.427Z,96839.66
2022-08-09T01:51:53.527Z,96834.84
2022-08-09T01:54:30.210Z,96827.50
2022-08-09T01:57:03.980Z,96839.19
2022-08-09T01:59:32.698Z,96839.38
2022-08-09T02:02:10.663Z,96840.41
2022-08-09T02:04:45.414Z,96838.06
2022-08-09T02:08:34.692Z,96846.75
2022-08-09T02:10:29.875Z,96847.94
2022-08-09T02:13:05.277Z,96843.41
2022-08-09T02:15:48.675Z,96852.78
2022-08-09T02:18:21.960Z,96848.78
2022-08-09T02:20:55.407Z,96850.63
2022-08-09T02:23:39.938Z,96842.97
2022-08-09T02:26:26.804Z,96849.31
2022-08-09T02:28:57.635Z,96843.09
2022-08-09T02:31:35.588Z,96849.31
2022-08-09T02:34:25.735Z,96849.31
2022-08-09T02:37:14.891Z,96843.47
2022-08-09T02:39:55.097Z,96840.94
2022-08-09T02:42:35.123Z,96847.47
2022-08-09T02:45:07.836Z,96846.16
2022-08-09T02:47:57.654Z,96836.47
2022-08-09T02:50:27.044Z,96838.66
2022-08-09T02:52:59.931Z,96842.00
2022-08-09T02:55:46.710Z,96841.47
2022-08-09T02:58:35.679Z,96836.81
2022-08-09T03:01:08.225Z,96828.09
2022-08-09T03:04:17.448Z,96834.31
2022-08-09T03:06:27.931Z,96823.44
2022-08-09T03:08:57.436Z,96824.44
2022-08-09T03:11:29.703Z,96818.44
2022-08-09T03:14:16.029Z,96816.94
2022-08-09T03:16:45.236Z,96814.75
2022-08-09T03:19:52.229Z,96816.91
2022-08-09T03:22:04.648Z,96815.41
2022-08-09T03:24:42.846Z,96821.94
2022-08-09T03:27:21.713Z,96819.25
2022-08-09T03:30:01.084Z,96814.91
2022-08-09T03:32:31.379Z,96816.91
2022-08-09T03:34:59.452Z,96818.75
2022-08-09T03:37:55.393Z,96817.75
2022-08-09T03:40:13.993Z,96816.59
2022-08-09T03:42:45.619Z,96813.06
2022-08-09T03:45:13.546Z,96806.22
2022-08-09T03:47:46.655Z,96819.59
2022-08-09T03:50:18.596Z,96814.94
2022-08-09T03:52:56.320Z,96814.75
2022-08-09T03:55:24.768Z,96808.59
2022-08-09T03:58:03.286Z,96809.41
2022-08-09T04:00:38.575Z,96819.75
2022-08-09T04:03:07.027Z,96812.91
2022-08-09T04:05:33.689Z,96816.25
2022-08-09T04:08:07.276Z,96813.09
2022-08-09T04:10:35.640Z,96813.25
2022-08-09T04:13:11.351Z,96806.22
2022-08-09T04:16:19.844Z,96804.59
2022-08-09T04:18:26.016Z,96811.75
2022-08-09T04:20:55.086Z,96822.63
2022-08-09T04:23:24.937Z,96810.56
2022-08-09T04:25:54.579Z,96812.44
2022-08-09T04:28:33.672Z,96815.59
2022-08-09T04:31:08.333Z,96816.28
2022-08-09T04:33:52.182Z,96810.94
2022-08-09T04:36:24.998Z,96811.56
2022-08-09T04:38:52.741Z,96810.75
2022-08-09T04:41:19.957Z,96819.28
2022-08-09T04:44:05.782Z,96818.59
2022-08-09T04:46:37.899Z,96812.91
2022-08-09T04:49:30.170Z,96811.09
2022-08-09T04:52:09.691Z,96811.56
2022-08-09T04:54:36.890Z,96812.59
2022-08-09T04:57:04.138Z,96811.25
2022-08-09T04:59:31.872Z,96815.41
2022-08-09T05:02:02.893Z,96816.91
2022-08-09T05:04:31.601Z,96824.28
2022-08-09T05:06:58.762Z,96824.47
2022-08-09T05:09:42.060Z,96816.28
2022-08-09T05:12:12.687Z,96814.59
2022-08-09T05:14:41.135Z,96818.25
2022-08-09T05:18:37.416Z,96821.63
2022-08-09T05:19:56.859Z,96815.25
2022-08-09T05:22:33.587Z,96812.25
2022-08-09T05:25:12.314Z,96806.03
2022-08-09T05:27:46.655Z,96804.53
2022-08-09T05:30:16.053Z,96800.00
2022-08-09T05:32:51.137Z,96790.41
2022-08-09T05:35:21.799Z,96797.13
2022-08-09T05:37:50.292Z,96791.03
2022-08-09T05:40:18.252Z,96796.16
2022-08-09T05:42:46.074Z,96794.28
2022-08-09T05:45:14.224Z,96789.13
2022-08-09T05:47:52.534Z,96786.06
2022-08-09T05:50:39.762Z,96779.22
2022-08-09T05:53:31.748Z,96776.72
2022-08-09T05:56:01.692Z,96779.25
2022-08-09T05:58:28.578Z,96781.72
2022-08-09T06:00:55.304Z,96773.34
2022-08-09T06:03:22.049Z,96783.56
2022-08-09T06:05:58.029Z,96775.16
2022-08-09T06:08:31.689Z,96778.19
2022-08-09T06:10:59.230Z,96772.44
2022-08-09T06:13:33.978Z,96768.72
2022-08-09T06:16:04.868Z,96771.22
2022-08-09T06:18:32.496Z,96770.38
2022-08-09T06:21:00.930Z,96767.72
2022-08-09T06:23:57.843Z,96766.44
2022-08-09T06:26:20.969Z,96765.81
2022-08-09T06:29:01.168Z,96764.34
2022-08-09T06:31:39.938Z,96772.16
2022-08-09T06:34:20.377Z,96765.19
2022-08-09T06:36:49.675Z,96769.53
2022-08-09T06:39:24.316Z,96759.81
2022-08-09T06:42:11.387Z,96763.22
2022-08-09T06:44:38.358Z,96764.25
2022-08-09T06:47:05.443Z,96764.69
2022-08-09T06:50:11.403Z,96767.91
2022-08-09T06:52:23.520Z,96765.75
2022-08-09T06:54:51.975Z,96765.69
2022-08-09T06:57:20.919Z,96766.72
2022-08-09T07:00:51.798Z,96772.25
2022-08-09T07:02:55.352Z,96763.69
2022-08-09T07:05:24.645Z,96765.38
2022-08-09T07:08:11.368Z,96768.19
2022-08-09T07:10:38.567Z,96762.63
2022-08-09T07:13:27.633Z,96769.28
2022-08-09T07:16:38.506Z,96776.72
2022-08-09T07:18:39.606Z,96772.13
2022-08-09T07:21:08.102Z,96787.94
2022-08-09T07:23:36.120Z,96782.88
2022-08-09T07:26:04.336Z,96775.38
2022-08-09T07:28:34.919Z,96780.22
2022-08-09T07:31:04.953Z,96775.19
2022-08-09T07:33:52.574Z,96779.34
2022-08-09T07:36:22.077Z,96777.06
2022-08-09T07:38:58.251Z,96786.41
2022-08-09T07:41:27.764Z,96776.69
2022-08-09T07:44:00.187Z,96779.06
2022-08-09T07:46:27.876Z,96775.69
2022-08-09T07:48:59.434Z,96789.38
2022-08-09T07:52:04.466Z,96773.66
2022-08-09T07:54:15.548Z,96789.41
2022-08-09T07:56:49.129Z,96793.25
2022-08-09T07:59:33.676Z,96786.16
2022-08-09T08:02:05.461Z,96793.38
2022-08-09T08:04:33.199Z,96799.66
2022-08-09T08:07:27.194Z,96804.41
2022-08-09T08:10:04.714Z,96798.63
2022-08-09T08:12:43.587Z,96788.00
2022-08-09T08:15:17.633Z,96789.09
2022-08-09T08:17:54.579Z,96785.09
2022-08-09T08:20:29.490Z,96777.50
2022-08-09T08:23:03.772Z,96782.41
2022-08-09T08:25:44.406Z,96782.72
2022-08-09T08:28:14.956Z,96774.78
2022-08-09T08:30:47.555Z,96776.66
2022-08-09T08:33:23.697Z,96785.31
2022-08-09T08:35:59.875Z,96770.84
2022-08-09T08:38:29.626Z,96781.59
2022-08-09T08:40:57.683Z,96787.38
2022-08-09T08:43:27.140Z,96785.28
2022-08-09T08:46:31.814Z,96786.47
2022-08-09T08:48:51.978Z,96788.88
2022-08-09T08:51:22.831Z,96787.63
2022-08-09T08:54:04.243Z,96786.75
2022-08-09T08:56:39.737Z,96781.91
2022-08-09T08:59:19.785Z,96784.06
2022-08-09T09:01:56.921Z,96784.22
2022-08-09T09:04:41.177Z,96786.47
2022-08-09T09:07:15.521Z,96791.00
2022-08-09T09:10:01.835Z,96787.88
2022-08-09T09:12:34.261Z,96804.41
2022-08-09T09:15:02.413Z,96791.75
2022-08-09T09:17:30.862Z,96791.50
2022-08-09T09:20:16.530Z,96790.66
2022-08-09T09:22:55.799Z,96789.88
2022-08-09T09:26:03.773Z,96783.47
2022-08-09T09:28:39.234Z,96788.81
2022-08-09T09:32:05.887Z,96780.72
2022-08-09T09:34:15.279Z,96770.06
2022-08-09T09:36:53.328Z,96774.91
2022-08-09T09:39:42.750Z,96768.31
2022-08-09T09:42:24.674Z,96775.84
2022-08-09T09:45:05.938Z,96775.34
2022-08-09T09:47:37.997Z,96773.94
2022-08-09T09:50:17.248Z,96773.00
2022-08-09T09:52:56.776Z,96772.31
2022-08-09T09:55:27.953Z,96766.13
2022-08-09T09:58:18.633Z,96774.47
2022-08-09T10:00:53.808Z,96767.91
2022-08-09T10:03:39.916Z,96769.56
2022-08-09T10:06:06.987Z,96775.59
2022-08-09T10:08:43.149Z,96759.91
2022-08-09T10:11:59.804Z,96759.41
2022-08-09T10:14:30.665Z,96762.59
2022-08-09T10:17:23.893Z,96754.28
2022-08-09T10:19:47.324Z,96767.22
2022-08-09T10:22:32.664Z,96749.88
2022-08-09T10:25:07.055Z,96752.44
2022-08-09T10:27:56.277Z,96748.44
2022-08-09T10:33:29.484Z,96757.38
2022-08-09T10:36:00.840Z,96739.81
2022-08-09T10:38:54.700Z,96745.56
2022-08-09T10:41:18.670Z,96750.22
2022-08-09T10:43:58.781Z,96766.16
2022-08-09T10:47:04.085Z,96753.38
2022-08-09T10:49:57.439Z,96750.44
2022-08-09T10:52:53.229Z,96748.66
2022-08-09T10:55:24.360Z,96752.06
2022-08-09T10:57:55.699Z,96750.13
2022-08-09T11:00:29.927Z,96758.00
2022-08-09T11:03:27.583Z,96758.63
2022-08-09T11:06:15.920Z,96753.13
2022-08-09T11:08:51.178Z,96746.88
2022-08-09T11:11:20.624Z,96737.16
2022-08-09T11:13:50.500Z,96744.28
2022-08-09T11:16:38.670Z,96748.31
2022-08-09T11:19:07.833Z,96741.66
2022-08-09T11:22:05.263Z,96743.28
2022-08-09T11:25:04.750Z,96736.13
2022-08-09T11:28:05.326Z,96736.84
2022-08-09T11:30:33.556Z,96754.41
2022-08-09T11:33:04.028Z,96730.69
2022-08-09T11:35:50.233Z,96737.75
2022-08-09T11:38:32.449Z,96738.94
2022-08-09T11:41:13.642Z,96736.66
2022-08-09T11:43:52.829Z,96740.88
2022-08-09T11:46:32.723Z,96737.16
2022-08-09T11:48:59.817Z,96734.63
2022-08-09T11:53:00.668Z,96725.06
2022-08-09T11:54:27.970Z,96734.69
2022-08-09T11:57:47.898Z,96724.34
2022-08-09T12:00:27.430Z,96722.59
2022-08-09T12:02:55.622Z,96712.28
2022-08-09T12:05:23.336Z,96721.56
2022-08-09T12:07:50.417Z,96715.78
2022-08-09T12:10:39.502Z,96706.75
2022-08-09T12:14:10.013Z,96713.78
2022-08-09T12:16:03.227Z,96721.81
2022-08-09T12:18:33.675Z,96718.88
2022-08-09T12:21:02.603Z,96713.41
2022-08-09T12:23:56.395Z,96703.84
2022-08-09T12:26:19.543Z,96707.88
2022-08-09T12:29:15.549Z,96710.03
2022-08-09T12:32:02.292Z,96710.75
2022-08-09T12:34:33.470Z,96704.47
2022-08-09T12:37:21.711Z,96692.78
2022-08-09T12:40:05.669Z,96691.25
2022-08-09T12:42:33.690Z,96690.53
2022-08-09T12:45:01.093Z,96680.78
2022-08-09T12:47:37.093Z,96698.41
2022-08-09T12:50:23.520Z,96693.03
2022-08-09T12:53:09.161Z,96699.75
2022-08-09T12:56:15.187Z,96687.41
2022-08-09T12:58:28.343Z,96697.19
2022-08-09T13:00:56.662Z,96693.59
2022-08-09T13:03:58.962Z,96687.88
2022-08-09T13:06:45.478Z,96685.72
2022-08-09T13:09:30.705Z,96684.81
2022-08-09T13:12:05.248Z,96683.94
2022-08-09T13:14:42.182Z,96683.38
2022-08-09T13:17:16.371Z,96685.78
2022-08-09T13:20:14.123Z,96669.56
2022-08-09T13:23:06.072Z,96675.09
2022-08-09T13:25:52.900Z,96667.31
2022-08-09T13:28:34.518Z,96667.91
2022-08-09T13:32:16.712Z,96673.09
2022-08-09T13:33:55.134Z,96667.38
2022-08-09T13:36:37.412Z,96687.25
2022-08-09T13:41:17.395Z,96680.03
2022-08-09T13:42:04.705Z,96686.41
2022-08-09T13:44:32.374Z,96678.63
2022-08-09T13:47:19.391Z,96674.81
2022-08-09T13:49:57.265Z,96674.94
2022-08-09T13:52:27.950Z,96679.44
2022-08-09T13:54:59.435Z,96677.13
2022-08-09T13:57:36.441Z,96672.56
2022-08-09T14:00:10.544Z,96669.75
2022-08-09T14:02:42.899Z,96675.13
2022-08-09T14:05:56.576Z,96676.84
2022-08-09T14:08:13.423Z,96665.53
2022-08-09T14:10:49.379Z,96659.97
2022-08-09T14:13:28.126Z,96659.66
2022-08-09T14:16:10.132Z,96667.13
2022-08-09T14:18:38.903Z,96670.50
2022-08-09T14:21:11.238Z,96670.41
2022-08-09T14:23:40.299Z,96664.22
2022-08-09T14:26:21.824Z,96667.72
2022-08-09T14:28:51.962Z,96667.38
2022-08-09T14:31:18.732Z,96669.75
2022-08-09T14:33:52.091Z,96669.34
2022-08-09T14:36:21.587Z,96665.78
2022-08-09T14:38:52.566Z,96679.50
2022-08-09T14:41:23.909Z,96673.50
2022-08-09T14:43:53.992Z,96677.28
2022-08-09T14:46:54.495Z,96673.22
2022-08-09T14:49:10.594Z,96678.16
2022-08-09T14:51:42.242Z,96680.78
2022-08-09T14:54:09.654Z,96682.28
2022-08-09T14:56:53.912Z,96676.91
2022-08-09T14:59:23.653Z,96676.47
2022-08-09T15:01:50.564Z,96684.66
2022-08-09T15:04:17.257Z,96682.63
2022-08-09T15:06:49.677Z,96677.91
2022-08-09T15:10:03.841Z,96672.06
2022-08-09T15:12:04.908Z,96679.50
2022-08-09T15:14:35.328Z,96683.91
2022-08-09T15:17:08.942Z,96682.25
2022-08-09T15:19:37.045Z,96681.44
2022-08-09T15:22:25.875Z,96664.97
2022-08-09T15:24:53.622Z,96678.47
2022-08-09T15:27:21.207Z,96680.50
2022-08-09T15:30:58.762Z,96677.28
2022-08-09T15:32:35.599Z,96681.28
2022-08-09T15:35:18.396Z,96681.28
2022-08-09T15:37:56.943Z,96682.59
2022-08-09T15:40:37.379Z,96679.38
2022-08-09T15:43:13.763Z,96685.66
2022-08-09T15:46:07.873Z,96687.19
2022-08-09T15:48:30.620Z,96691.69
2022-08-09T15:51:00.100Z,96685.59
2022-08-09T15:54:03.960Z,96681.19
2022-08-09T15:56:29.260Z,96682.09
2022-08-09T15:58:58.248Z,96682.50
2022-08-09T16:01:25.220Z,96691.53
2022-08-09T16:03:52.428Z,96688.81
2022-08-09T16:06:35.373Z,96683.81
2022-08-09T16:09:05.664Z,96690.28
2022-08-09T16:11:33.136Z,96685.56
2022-08-09T16:14:03.717Z,96675.63
2022-08-09T16:16:34.673Z,96678.03
2022-08-09T16:19:04.746Z,96677.22
2022-08-09T16:21:34.905Z,96690.09
2022-08-09T16:24:04.819Z,96679.22
2022-08-09T16:26:34.872Z,96681.09
2022-08-09T16:29:11.749Z,96682.41
2022-08-09T16:32:19.875Z,96682.06
2022-08-09T16:34:55.494Z,96685.72
2022-08-09T16:37:20.373Z,96678.66
2022-08-09T16:40:08.659Z,96684.91
2022-08-09T16:42:36.162Z,96687.16
2022-08-09T16:45:05.207Z,96690.00
2022-08-09T16:48:40.918Z,96688.81
2022-08-09T16:50:33.051Z,96689.28
2022-08-09T16:53:01.691Z,96700.03
2022-08-09T16:55:31.383Z,96698.28
2022-08-09T16:58:16.946Z,96698.28
2022-08-09T17:00:46.332Z,96700.63
2022-08-09T17:03:21.493Z,96699.56
2022-08-09T17:06:08.686Z,96701.44
2022-08-09T17:08:43.078Z,96699.47
2022-08-09T17:11:15.212Z,96698.03
2022-08-09T17:13:45.291Z,96699.81
2022-08-09T17:16:12.063Z,96690.22
2022-08-09T17:18:39.120Z,96697.91
2022-08-09T17:21:05.885Z,96690.22
2022-08-09T17:24:20.181Z,96701.59
2022-08-09T17:26:31.648Z,96708.53
2022-08-09T17:29:05.245Z,96701.38
2022-08-09T17:31:38.975Z,96703.63
2022-08-09T17:35:00.802Z,96704.28
2022-08-09T17:36:54.108Z,96718.72
2022-08-09T17:39:25.075Z,96712.66
2022-08-09T17:41:52.046Z,96720.28
2022-08-09T17:44:38.642Z,96729.19
2022-08-09T17:47:10.439Z,96731.28
2022-08-09T17:49:54.248Z,96732.09
2022-08-09T17:52:24.739Z,96732.94
2022-08-09T17:54:54.650Z,96744.09
2022-08-09T17:58:03.086Z,96752.28
2022-08-09T18:00:11.131Z,96749.50
2022-08-09T18:02:38.473Z,96753.56
2022-08-09T18:05:08.410Z,96762.97
2022-08-09T18:07:39.881Z,96757.44
2022-08-09T18:10:15.247Z,96772.66
2022-08-09T18:13:39.644Z,96773.59
2022-08-09T18:16:05.247Z,96786.22
2022-08-09T18:18:25.406Z,96778.38
2022-08-09T18:21:10.401Z,96785.47
2022-08-09T18:24:10.773Z,96778.66
2022-08-09T18:26:26.422Z,96782.31
2022-08-09T18:30:42.121Z,96796.69
2022-08-09T18:31:51.485Z,96797.16
2022-08-09T18:34:24.410Z,96796.78
2022-08-09T18:36:53.185Z,96804.94
2022-08-09T18:39:22.442Z,96809.16
2022-08-09T18:41:53.312Z,96812.56
2022-08-09T18:44:22.930Z,96820.47
2022-08-09T18:47:04.832Z,96818.00
2022-08-09T18:49:43.227Z,96834.47
2022-08-09T18:52:13.951Z,96836.16
2022-08-09T18:54:49.559Z,96846.78
2022-08-09T18:57:22.347Z,96850.53
2022-08-09T18:59:55.107Z,96845.31
2022-08-09T19:02:31.792Z,96852.00
2022-08-09T19:05:14.748Z,96849.09
2022-08-09T19:08:03.902Z,96858.66
2022-08-09T19:10:37.309Z,96855.97
2022-08-09T19:13:20.272Z,96873.03
2022-08-09T19:15:52.389Z,96865.97
2022-08-09T19:18:33.265Z,96874.06
2022-08-09T19:21:05.550Z,96871.13
2022-08-09T19:24:36.017Z,96886.06
2022-08-09T19:26:31.069Z,96881.72
2022-08-09T19:29:09.514Z,96885.44
2022-08-09T19:31:45.943Z,96883.75
2022-08-09T19:34:21.621Z,96885.81
2022-08-09T19:36:50.543Z,96888.06
2022-08-09T19:39:17.360Z,96876.66
2022-08-09T19:41:48.706Z,96895.31
2022-08-09T19:44:20.721Z,96894.06
2022-08-09T19:46:50.955Z,96892.56
2022-08-09T19:50:09.151Z,96893.59
2022-08-09T19:52:10.177Z,96890.44
2022-08-09T19:54:39.968Z,96887.56
2022-08-09T19:57:08.511Z,96892.06
2022-08-09T19:59:57.983Z,96888.09
2022-08-09T20:04:07.196Z,96890.38
2022-08-09T20:05:14.980Z,96888.47
2022-08-09T20:07:57.024Z,96895.31
2022-08-09T20:10:34.718Z,96899.16
2022-08-09T20:13:05.010Z,96902.84
2022-08-09T20:16:38.602Z,96887.72
2022-08-09T20:18:19.757Z,96900.09
2022-08-09T20:20:47.009Z,96886.78
2022-08-09T20:23:13.741Z,96896.09
2022-08-09T20:25:52.027Z,96897.97
2022-08-09T20:28:31.989Z,96887.34
2022-08-09T20:31:05.711Z,96888.13
2022-08-09T20:33:41.030Z,96894.72
2022-08-09T20:36:11.650Z,96889.31
2022-08-09T20:39:18.745Z,96893.66
2022-08-09T20:41:34.721Z,96893.84
2022-08-09T20:44:02.546Z,96887.19
2022-08-09T20:46:42.202Z,96895.91
2022-08-09T20:49:10.458Z,96893.22
2022-08-09T20:51:41.088Z,96884.69
2022-08-09T20:54:12.515Z,96892.09
2022-08-09T20:56:47.093Z,96892.41
2022-08-09T20:59:16.657Z,96893.25
2022-08-09T21:01:51.018Z,96884.94
2022-08-09T21:05:55.075Z,96889.25
2022-08-09T21:07:11.635Z,96890.81
2022-08-09T21:09:55.466Z,96905.88
2022-08-09T21:15:12.921Z,96900.28
2022-08-09T21:18:11.221Z,96900.44
2022-08-09T21:20:26.891Z,96904.06
2022-08-09T21:22:58.136Z,96897.84
2022-08-09T21:25:55.872Z,96897.78
2022-08-09T21:28:36.025Z,96895.78
2022-08-09T21:31:17.290Z,96897.19
2022-08-09T21:33:52.132Z,96901.91
2022-08-09T21:36:28.223Z,96906.47
2022-08-09T21:38:57.195Z,96899.44
2022-08-09T21:42:03.974Z,96893.78
2022-08-09T21:44:32.725Z,96892.88
2022-08-09T21:47:03.836Z,96897.44
2022-08-09T21:49:40.247Z,96899.47
2022-08-09T21:52:16.459Z,96900.03
2022-08-09T21:54:46.323Z,96900.41
2022-08-09T21:57:36.784Z,96904.88
2022-08-09T22:00:11.476Z,96907.09
2022-08-09T22:02:40.256Z,96897.53
2022-08-09T22:05:22.279Z,96898.84
2022-08-09T22:07:53.001Z,96902.31
2022-08-09T22:10:23.227Z,96904.31
2022-08-09T22:12:52.045Z,96903.22
2022-08-09T22:15:20.664Z,96900.72
2022-08-09T22:17:50.359Z,96894.69
2022-08-09T22:20:27.225Z,96894.25
2022-08-09T22:22:54.489Z,96893.41
2022-08-09T22:26:05.577Z,96894.78
2022-08-09T22:28:07.925Z,96893.16
2022-08-09T22:30:34.795Z,96895.75
2022-08-09T22:33:03.723Z,96899.63
2022-08-09T22:36:00.026Z,96899.13
2022-08-09T22:38:23.557Z,96895.78
2022-08-09T22:40:57.916Z,96891.16
2022-08-09T22:44:03.263Z,96889.28
2022-08-09T22:48:14.136Z,96891.34
2022-08-09T22:49:09.724Z,96902.91
2022-08-09T22:51:39.305Z,96897.91
2022-08-09T22:54:08.001Z,96898.91
2022-08-09T22:56:37.690Z,96894.75
2022-08-09T22:59:57.165Z,96884.84
2022-08-09T23:01:56.005Z,96889.56
2022-08-09T23:04:23.086Z,96888.75
2022-08-09T23:07:11.188Z,96889.94
2022-08-09T23:09:38.457Z,96894.84
2022-08-09T23:12:07.407Z,96885.38
2022-08-09T23:14:37.503Z,96893.00
2022-08-09T23:17:10.004Z,96893.00
2022-08-09T23:20:06.859Z,96890.31
2022-08-09T23:22:23.817Z,96889.84
2022-08-09T23:24:50.541Z,96888.91
2022-08-09T23:27:17.318Z,96895.47
2022-08-09T23:29:44.018Z,96887.13
2022-08-09T23:32:11.004Z,96879.78
2022-08-09T23:34:38.035Z,96885.22
2022-08-09T23:37:05.148Z,96883.44
2022-08-09T23:39:32.292Z,96881.78
2022-08-09T23:41:59.428Z,96882.69
2022-08-09T23:44:26.244Z,96879.53
2022-08-09T23:46:57.456Z,96882.75
2022-08-09T23:49:25.893Z,96878.03
2022-08-09T23:51:53.419Z,96882.03
2022-08-09T23:54:21.138Z,96872.66
2022-08-09T23:56:56.164Z,96874.91
2022-08-09T23:59:25.349Z,96867.03
